CheckWX is a tool to help pilots better visualize weather data.  It is not intended as a substitute for an official pre-flight weather briefing.

07:32:30 UTC

PKWA TAF
Bucholz AAF(Kwajalein Kmr)(Atoll) Airport
Kwajalein, Marshall Islands
PKWA 180523Z 1806/1906 07012KT P6SM SCT020 SCT045 BKN150

Jun-18@
06:00 UTC

Jun-18 @ 06:00 UTC

Jun-19@
06:00 UTC

Jun-19 @ 06:00 UTC

PKWA 180523Z 1806/1906 07012KT P6SM SCT020 SCT045 BKN150
Wind
  • 070° at 12 KTS
Cloud Levels
  • Scattered at 2,000' AGL
  • Scattered at 4,500' AGL
  • Broken at 15,000' AGL